createdAt,value
2019-03-18T00:02:50.969Z,78.78
2019-03-18T00:08:14.851Z,78.52
2019-03-18T00:13:39.472Z,77.90
2019-03-18T00:19:03.223Z,76.94
2019-03-18T00:24:27.061Z,77.33
2019-03-18T00:29:51.307Z,77.74
2019-03-18T00:35:15.663Z,77.76
2019-03-18T00:40:40.094Z,77.99
2019-03-18T00:46:04.497Z,78.22
2019-03-18T00:51:28.056Z,78.11
2019-03-18T00:56:51.769Z,78.36
2019-03-18T01:02:16.346Z,79.21
2019-03-18T01:07:40.497Z,79.31
2019-03-18T01:13:04.128Z,79.57
2019-03-18T01:18:28.291Z,79.70
2019-03-18T01:23:52.647Z,80.05
2019-03-18T01:29:17.456Z,79.71
2019-03-18T01:34:41.079Z,78.78
2019-03-18T01:40:06.914Z,78.50
2019-03-18T01:45:40.177Z,78.13
2019-03-18T01:50:56.524Z,77.51
2019-03-18T01:56:20.317Z,77.86
2019-03-18T02:01:43.905Z,78.12
2019-03-18T02:07:07.695Z,77.27
2019-03-18T02:12:31.486Z,77.48
2019-03-18T02:17:55.294Z,77.89
2019-03-18T02:23:20.223Z,77.19
2019-03-18T02:28:43.984Z,77.36
2019-03-18T02:34:08.037Z,76.98
2019-03-18T02:39:32.701Z,77.16
2019-03-18T02:44:57.390Z,76.85
2019-03-18T02:50:21.283Z,76.79
2019-03-18T02:55:47.946Z,77.10
2019-03-18T03:01:11.699Z,77.16
2019-03-18T03:06:36.206Z,76.99
2019-03-18T03:12:00.104Z,77.03
2019-03-18T03:17:26.976Z,77.78
2019-03-18T03:22:51.082Z,78.34
2019-03-18T03:28:14.902Z,78.22
2019-03-18T03:33:44.850Z,78.20
2019-03-18T03:39:08.830Z,79.16
2019-03-18T03:44:33.586Z,78.15
2019-03-18T03:49:58.449Z,78.38
2019-03-18T03:55:23.154Z,78.50
2019-03-18T04:00:47.991Z,78.39
2019-03-18T04:06:11.844Z,78.92
2019-03-18T04:11:35.822Z,79.14
2019-03-18T04:17:02.227Z,79.04
2019-03-18T04:22:26.215Z,79.42
2019-03-18T04:27:50.513Z,78.91
2019-03-18T04:33:18.410Z,78.93
2019-03-18T04:38:42.733Z,78.78
2019-03-18T04:44:06.308Z,79.30
2019-03-18T04:49:31.297Z,79.23
2019-03-18T04:54:55.165Z,79.32
2019-03-18T05:00:19.175Z,79.32
2019-03-18T05:05:42.799Z,79.30
2019-03-18T05:11:07.201Z,79.50
2019-03-18T05:16:30.810Z,79.15
2019-03-18T05:21:55.622Z,79.00
2019-03-18T05:27:19.561Z,78.62
2019-03-18T05:32:43.826Z,77.74
2019-03-18T05:38:08.521Z,77.52
2019-03-18T05:43:32.650Z,77.41
2019-03-18T05:48:56.575Z,77.54
2019-03-18T05:54:22.691Z,78.04
2019-03-18T05:59:46.443Z,78.11
2019-03-18T06:05:10.999Z,77.83
2019-03-18T06:10:35.002Z,78.10
2019-03-18T06:15:58.790Z,78.03
2019-03-18T06:21:22.824Z,77.71
2019-03-18T06:26:47.326Z,77.04
2019-03-18T06:32:10.887Z,75.91
2019-03-18T06:37:34.621Z,75.38
2019-03-18T06:42:59.395Z,75.26
2019-03-18T06:48:24.106Z,74.92
2019-03-18T06:53:48.638Z,74.37
2019-03-18T06:59:13.402Z,74.49
2019-03-18T07:04:38.177Z,74.69
2019-03-18T07:10:01.943Z,74.04
2019-03-18T07:15:29.094Z,72.96
2019-03-18T07:20:53.658Z,72.05
2019-03-18T07:26:17.617Z,71.55
2019-03-18T07:31:41.272Z,70.18
2019-03-18T07:37:05.401Z,70.23
2019-03-18T07:42:29.831Z,70.31
2019-03-18T07:47:53.924Z,71.23
2019-03-18T07:53:18.418Z,71.32
2019-03-18T07:58:43.349Z,70.96
2019-03-18T08:04:07.062Z,70.81
2019-03-18T08:09:31.646Z,69.94
2019-03-18T08:14:56.123Z,69.97
2019-03-18T08:20:20.900Z,70.17
2019-03-18T08:25:44.995Z,69.67
2019-03-18T08:31:09.565Z,69.52
2019-03-18T08:36:34.546Z,69.71
2019-03-18T08:41:58.164Z,69.10
2019-03-18T08:47:23.118Z,69.64
2019-03-18T08:52:48.032Z,68.48
2019-03-18T08:58:12.399Z,68.40
2019-03-18T09:03:36.665Z,67.45
2019-03-18T09:09:01.431Z,67.50
2019-03-18T09:14:26.372Z,67.28
2019-03-18T09:19:51.049Z,67.04
2019-03-18T09:25:15.004Z,67.19
2019-03-18T09:30:39.465Z,66.88
2019-03-18T09:36:04.290Z,66.37
2019-03-18T09:41:29.194Z,66.17
2019-03-18T09:46:53.088Z,64.50
2019-03-18T09:52:17.061Z,62.16
2019-03-18T09:57:40.799Z,61.39
2019-03-18T10:03:05.149Z,59.18
2019-03-18T10:08:28.850Z,59.84
2019-03-18T10:13:52.983Z,62.99
2019-03-18T10:19:17.823Z,62.44
2019-03-18T10:24:42.560Z,61.49
2019-03-18T10:30:08.468Z,62.08
2019-03-18T10:35:32.518Z,64.29
2019-03-18T10:40:59.548Z,66.29
2019-03-18T10:46:23.076Z,65.16
2019-03-18T10:51:48.366Z,62.89
2019-03-18T10:57:13.276Z,62.71
2019-03-18T11:02:38.005Z,62.99
2019-03-18T11:08:03.387Z,60.75
2019-03-18T11:13:28.690Z,60.97
2019-03-18T11:18:52.418Z,61.55
2019-03-18T11:24:18.441Z,59.98
2019-03-18T11:29:42.259Z,56.81
2019-03-18T11:35:06.122Z,56.73
2019-03-18T11:40:31.086Z,54.79
2019-03-18T11:45:55.616Z,52.85
2019-03-18T11:51:21.452Z,55.28
2019-03-18T11:56:45.382Z,53.07
2019-03-18T12:02:10.355Z,51.66
2019-03-18T12:07:35.040Z,50.61
2019-03-18T12:13:00.453Z,51.80
2019-03-18T12:18:25.381Z,53.73
2019-03-18T12:23:49.487Z,54.64
2019-03-18T12:29:14.671Z,49.37
2019-03-18T12:34:39.330Z,47.48
2019-03-18T12:40:04.540Z,51.82
2019-03-18T12:45:28.237Z,57.18
2019-03-18T12:50:56.191Z,67.76
2019-03-18T12:56:19.480Z,61.11
2019-03-18T13:01:43.471Z,56.16
2019-03-18T13:07:07.491Z,57.68
2019-03-18T13:12:32.286Z,59.44
2019-03-18T13:17:56.251Z,61.51
2019-03-18T13:23:19.796Z,69.30
2019-03-18T13:28:44.203Z,67.99
2019-03-18T13:34:08.287Z,67.41
2019-03-18T13:39:32.055Z,65.94
2019-03-18T13:44:57.778Z,58.33
2019-03-18T13:50:21.899Z,56.09
2019-03-18T13:55:45.650Z,55.74
2019-03-18T14:01:10.584Z,55.61
2019-03-18T14:06:34.404Z,53.71
2019-03-18T14:11:59.146Z,55.05
2019-03-18T14:17:23.059Z,54.94
2019-03-18T14:22:47.377Z,57.56
2019-03-18T14:28:12.031Z,65.42
2019-03-18T14:33:35.874Z,66.47
2019-03-18T14:38:59.497Z,65.35
2019-03-18T14:44:23.609Z,64.03
2019-03-18T14:49:47.232Z,60.87
2019-03-18T14:55:11.779Z,60.19
2019-03-18T15:00:35.558Z,58.37
2019-03-18T15:06:00.915Z,57.06
2019-03-18T15:11:26.567Z,58.62
2019-03-18T15:16:51.239Z,56.35
2019-03-18T15:22:14.810Z,57.86
2019-03-18T15:27:38.535Z,59.90
2019-03-18T15:33:04.085Z,62.30
2019-03-18T15:38:28.367Z,66.21
2019-03-18T15:43:52.904Z,70.81
2019-03-18T15:49:16.799Z,73.04
2019-03-18T15:54:53.120Z,78.32
2019-03-18T16:00:09.661Z,79.46
2019-03-18T16:05:33.453Z,74.80
2019-03-18T16:10:58.240Z,73.24
2019-03-18T16:16:22.079Z,73.80
2019-03-18T16:21:46.141Z,73.55
2019-03-18T16:27:10.993Z,71.95
2019-03-18T16:32:37.538Z,72.38
2019-03-18T16:38:02.199Z,73.52
2019-03-18T16:43:26.853Z,74.34
2019-03-18T16:48:51.897Z,73.89
2019-03-18T16:54:15.506Z,73.43
2019-03-18T16:59:39.595Z,73.25
2019-03-18T17:05:04.353Z,73.33
2019-03-18T17:10:28.167Z,73.55
2019-03-18T17:15:53.164Z,74.64
2019-03-18T17:21:17.067Z,74.54
2019-03-18T17:26:40.663Z,74.36
2019-03-18T17:32:05.417Z,74.09
2019-03-18T17:37:30.038Z,77.05
2019-03-18T17:42:54.823Z,78.02
2019-03-18T17:48:22.763Z,76.88
2019-03-18T17:53:47.174Z,75.53
2019-03-18T17:59:12.008Z,75.61
2019-03-18T18:04:36.407Z,74.90
2019-03-18T18:10:01.147Z,77.33
2019-03-18T18:15:25.862Z,78.28
2019-03-18T18:20:49.611Z,78.79
2019-03-18T18:26:13.654Z,79.21
2019-03-18T18:31:37.594Z,77.65
2019-03-18T18:37:02.078Z,76.75
2019-03-18T18:42:26.713Z,76.54
2019-03-18T18:47:52.425Z,76.23
2019-03-18T18:53:25.648Z,77.49
2019-03-18T18:58:42.718Z,77.99
2019-03-18T19:04:06.579Z,77.94
2019-03-18T19:09:30.448Z,77.79
2019-03-18T19:14:53.996Z,77.09
2019-03-18T19:20:17.919Z,78.14
2019-03-18T19:25:41.513Z,77.48
2019-03-18T19:31:06.386Z,77.45
2019-03-18T19:36:30.026Z,78.59
2019-03-18T19:41:54.669Z,78.65
2019-03-18T19:47:18.317Z,78.60
2019-03-18T19:52:43.338Z,78.77
2019-03-18T19:58:08.221Z,78.90
2019-03-18T20:03:32.665Z,79.29
2019-03-18T20:08:57.167Z,79.20
2019-03-18T20:14:21.651Z,79.12
2019-03-18T20:19:46.286Z,78.33
2019-03-18T20:25:10.821Z,78.68
2019-03-18T20:30:35.698Z,79.40
2019-03-18T20:35:59.531Z,79.78
2019-03-18T20:41:23.784Z,80.17
2019-03-18T20:46:47.860Z,80.24
2019-03-18T20:52:17.015Z,80.55
2019-03-18T20:57:38.203Z,80.40
2019-03-18T21:03:02.728Z,80.44
2019-03-18T21:08:26.766Z,80.58
2019-03-18T21:13:57.028Z,80.29
2019-03-18T21:19:15.999Z,79.54
2019-03-18T21:24:40.699Z,80.00
2019-03-18T21:30:05.554Z,80.08
2019-03-18T21:35:30.741Z,80.55
2019-03-18T21:40:54.883Z,81.09
2019-03-18T21:46:19.719Z,81.15
2019-03-18T21:51:43.779Z,81.16
2019-03-18T21:57:08.605Z,81.14
2019-03-18T22:02:33.344Z,80.81
2019-03-18T22:07:58.046Z,80.53
2019-03-18T22:13:22.703Z,80.35
2019-03-18T22:18:47.756Z,79.42
2019-03-18T22:24:11.921Z,79.05
2019-03-18T22:29:35.981Z,79.13
2019-03-18T22:34:59.887Z,78.24
2019-03-18T22:40:27.724Z,78.07
2019-03-18T22:45:52.355Z,78.91
2019-03-18T22:51:17.232Z,78.98
2019-03-18T22:56:41.869Z,79.30
2019-03-18T23:02:05.661Z,79.83
2019-03-18T23:07:30.658Z,79.93
2019-03-18T23:12:54.358Z,80.24
2019-03-18T23:18:19.189Z,79.61
2019-03-18T23:23:44.613Z,79.60
2019-03-18T23:29:08.490Z,79.14
2019-03-18T23:34:32.476Z,79.28
2019-03-18T23:39:56.900Z,79.19
2019-03-18T23:45:20.926Z,78.91
2019-03-18T23:50:45.636Z,78.92
2019-03-18T23:56:09.461Z,79.36
